createdAt,value
2023-04-08T00:00:13.388Z,1.40
2023-04-08T00:01:13.268Z,1.68
2023-04-08T00:02:13.163Z,1.84
2023-04-08T00:03:13.268Z,1.56
2023-04-08T00:04:13.440Z,1.36
2023-04-08T00:05:13.506Z,0.96
2023-04-08T00:06:13.405Z,1.00
2023-04-08T00:07:13.316Z,0.76
2023-04-08T00:08:13.398Z,0.96
2023-04-08T00:09:14.003Z,0.84
2023-04-08T00:10:13.083Z,0.36
2023-04-08T00:11:12.999Z,0.00
2023-04-08T00:12:13.268Z,0.00
2023-04-08T00:13:13.082Z,0.00
2023-04-08T00:14:12.969Z,0.00
2023-04-08T00:15:13.069Z,0.00
2023-04-08T00:16:13.094Z,0.00
2023-04-08T00:17:13.415Z,0.00
2023-04-08T00:18:13.413Z,0.00
2023-04-08T00:19:13.537Z,0.00
2023-04-08T00:20:13.515Z,0.00
2023-04-08T00:21:13.415Z,0.00
2023-04-08T00:22:13.544Z,0.00
2023-04-08T00:23:13.746Z,0.00
2023-04-08T00:24:13.904Z,0.00
2023-04-08T00:25:12.889Z,0.00
2023-04-08T00:26:13.072Z,0.00
2023-04-08T00:27:13.325Z,0.00
2023-04-08T00:28:13.292Z,0.00
2023-04-08T00:29:13.301Z,0.00
2023-04-08T00:30:13.436Z,0.00
2023-04-08T00:31:13.532Z,0.00
2023-04-08T00:32:13.792Z,0.00
2023-04-08T00:33:14.302Z,0.00
2023-04-08T00:34:13.543Z,0.00
2023-04-08T00:35:13.793Z,0.00
2023-04-08T00:36:19.373Z,0.00
2023-04-08T00:37:13.419Z,0.00
2023-04-08T00:38:13.708Z,0.00
2023-04-08T00:39:13.720Z,0.00
2023-04-08T00:40:13.941Z,0.00
2023-04-08T00:41:13.248Z,0.00
2023-04-08T00:42:13.290Z,0.00
2023-04-08T00:43:13.427Z,0.00
2023-04-08T00:44:13.359Z,0.00
2023-04-08T00:45:13.784Z,0.00
2023-04-08T00:46:13.848Z,1.44
2023-04-08T00:47:13.984Z,1.52
2023-04-08T00:48:13.121Z,1.56
2023-04-08T00:49:13.033Z,0.12
2023-04-08T00:50:12.880Z,0.12
2023-04-08T00:51:12.965Z,0.00
2023-04-08T00:52:13.302Z,0.00
2023-04-08T00:53:13.353Z,0.00
2023-04-08T00:54:18.260Z,0.00
2023-04-08T00:55:13.116Z,0.00
2023-04-08T00:56:13.080Z,0.00
2023-04-08T00:57:13.029Z,0.00
2023-04-08T00:58:13.048Z,0.00
2023-04-08T00:59:13.198Z,0.00
2023-04-08T01:00:13.041Z,0.00
2023-04-08T01:01:14.167Z,0.00
2023-04-08T01:02:13.404Z,0.00
2023-04-08T01:03:14.055Z,0.00
2023-04-08T01:04:13.305Z,0.00
2023-04-08T01:05:13.791Z,0.00
2023-04-08T01:06:14.108Z,0.00
2023-04-08T01:07:13.493Z,0.00
2023-04-08T01:08:14.068Z,0.00
2023-04-08T01:09:13.390Z,0.00
2023-04-08T01:10:13.499Z,0.00
2023-04-08T01:11:13.527Z,0.00
2023-04-08T01:12:13.644Z,0.00
2023-04-08T01:13:13.609Z,0.00
2023-04-08T01:14:13.575Z,0.00
2023-04-08T01:15:13.685Z,0.00
2023-04-08T01:17:18.627Z,0.24
2023-04-08T01:18:18.918Z,0.00
2023-04-08T01:19:12.911Z,0.00
2023-04-08T01:20:12.819Z,0.00
2023-04-08T01:21:13.900Z,0.00
2023-04-08T01:22:12.753Z,0.00
2023-04-08T01:23:13.646Z,0.00
2023-04-08T01:24:14.040Z,0.00
2023-04-08T01:25:12.968Z,0.00
2023-04-08T01:26:12.776Z,0.00
2023-04-08T01:27:13.758Z,0.00
2023-04-08T01:28:13.639Z,0.00
2023-04-08T01:29:13.670Z,0.00
2023-04-08T01:30:13.952Z,0.00
2023-04-08T01:31:13.103Z,0.00
2023-04-08T01:32:12.982Z,0.00
2023-04-08T01:33:13.002Z,0.00
2023-04-08T01:34:12.916Z,0.00
2023-04-08T01:35:13.256Z,0.00
2023-04-08T01:36:13.211Z,0.00
2023-04-08T01:37:13.120Z,0.00
2023-04-08T01:38:13.028Z,0.00
2023-04-08T01:39:12.842Z,0.00
2023-04-08T01:40:13.947Z,0.00
2023-04-08T01:41:12.805Z,0.00
2023-04-08T01:42:13.710Z,0.00
2023-04-08T01:43:13.940Z,0.00
2023-04-08T01:44:12.986Z,0.00
2023-04-08T01:45:13.212Z,0.00
2023-04-08T01:46:13.152Z,0.00
2023-04-08T01:47:13.176Z,0.00
2023-04-08T01:48:13.696Z,0.00
2023-04-08T01:49:13.717Z,0.00
2023-04-08T01:50:13.825Z,0.00
2023-04-08T01:51:13.953Z,0.00
2023-04-08T01:52:13.019Z,0.00
2023-04-08T01:53:13.023Z,0.00
2023-04-08T01:54:12.963Z,0.00
2023-04-08T01:55:12.815Z,0.00
2023-04-08T01:56:13.635Z,0.00
2023-04-08T01:57:13.516Z,0.00
2023-04-08T01:58:13.492Z,0.40
2023-04-08T01:59:13.445Z,1.32
2023-04-08T02:00:13.594Z,1.20
2023-04-08T02:01:13.396Z,1.44
2023-04-08T02:02:13.348Z,2.32
2023-04-08T02:03:13.775Z,0.80
2023-04-08T02:04:13.084Z,0.00
2023-04-08T02:05:13.233Z,0.00
2023-04-08T02:06:13.431Z,0.00
2023-04-08T02:07:13.508Z,0.00
2023-04-08T02:08:13.361Z,0.00
2023-04-08T02:09:13.362Z,0.00
2023-04-08T02:10:13.472Z,0.00
2023-04-08T02:11:13.394Z,0.00
2023-04-08T02:12:13.386Z,0.00
2023-04-08T02:13:13.401Z,0.00
2023-04-08T02:14:13.338Z,0.00
2023-04-08T02:15:13.535Z,0.00
2023-04-08T02:16:13.837Z,0.00
2023-04-08T02:17:13.746Z,0.00
2023-04-08T02:18:14.039Z,0.00
2023-04-08T02:19:13.258Z,0.00
2023-04-08T02:20:13.506Z,0.00
2023-04-08T02:21:13.708Z,0.00
2023-04-08T02:22:14.141Z,0.00
2023-04-08T02:23:13.492Z,0.00
2023-04-08T02:24:13.477Z,0.00
2023-04-08T02:25:13.453Z,0.00
2023-04-08T02:26:13.417Z,0.00
2023-04-08T02:27:13.368Z,0.00
2023-04-08T02:28:13.405Z,0.00
2023-04-08T02:29:13.405Z,0.00
2023-04-08T02:30:13.372Z,0.00
2023-04-08T02:31:13.906Z,0.00
2023-04-08T02:32:13.113Z,0.00
2023-04-08T02:33:12.997Z,0.00
2023-04-08T02:34:13.068Z,0.00
2023-04-08T02:35:12.941Z,0.00
2023-04-08T02:36:12.920Z,0.00
2023-04-08T02:37:12.814Z,0.08
2023-04-08T02:38:13.801Z,0.00
2023-04-08T02:39:13.663Z,0.00
2023-04-08T02:40:13.578Z,0.00
2023-04-08T02:41:13.417Z,0.00
2023-04-08T02:42:13.394Z,0.00
2023-04-08T02:43:13.295Z,0.00
2023-04-08T02:44:13.311Z,0.00
2023-04-08T02:45:13.416Z,0.08
2023-04-08T02:46:13.510Z,0.00
2023-04-08T02:47:13.439Z,0.20
2023-04-08T02:48:13.475Z,0.04
2023-04-08T02:49:13.431Z,0.00
2023-04-08T02:50:13.345Z,0.00
2023-04-08T02:51:13.387Z,0.00
2023-04-08T02:52:13.285Z,0.00
2023-04-08T02:53:13.462Z,0.20
2023-04-08T02:54:13.328Z,0.64
2023-04-08T02:55:13.191Z,0.44
2023-04-08T02:56:13.168Z,0.00
2023-04-08T02:57:13.125Z,0.00
2023-04-08T02:58:13.051Z,0.00
2023-04-08T02:59:13.047Z,0.00
2023-04-08T03:00:13.162Z,0.00
2023-04-08T03:01:13.276Z,0.00
2023-04-08T03:02:13.382Z,0.00
2023-04-08T03:03:13.797Z,0.00
2023-04-08T03:04:13.792Z,0.00
2023-04-08T03:05:13.661Z,0.08
2023-04-08T03:06:13.682Z,0.00
2023-04-08T03:07:13.600Z,0.00
2023-04-08T03:08:13.385Z,0.00
2023-04-08T03:09:13.641Z,0.00
2023-04-08T03:10:13.918Z,0.00
2023-04-08T03:11:13.270Z,0.00
2023-04-08T03:12:14.024Z,0.00
2023-04-08T03:13:13.255Z,0.00
2023-04-08T03:14:13.627Z,0.00
2023-04-08T03:15:13.589Z,0.00
2023-04-08T03:16:13.439Z,0.00
2023-04-08T03:17:15.250Z,0.00
2023-04-08T03:18:13.120Z,0.00
2023-04-08T03:19:17.998Z,0.08
2023-04-08T03:20:12.886Z,0.00
2023-04-08T03:21:14.010Z,0.08
2023-04-08T03:22:13.128Z,1.16
2023-04-08T03:23:13.019Z,2.16
2023-04-08T03:24:12.819Z,2.40
2023-04-08T03:25:13.804Z,1.68
2023-04-08T03:26:13.712Z,0.56
2023-04-08T03:27:13.651Z,0.00
2023-04-08T03:28:13.617Z,0.00
2023-04-08T03:29:13.726Z,0.00
2023-04-08T03:30:13.732Z,0.00
2023-04-08T03:31:12.741Z,0.00
2023-04-08T03:32:13.611Z,0.00
2023-04-08T03:33:13.555Z,0.00
2023-04-08T03:34:13.598Z,0.00
2023-04-08T03:35:13.638Z,0.00
2023-04-08T03:36:13.589Z,0.00
2023-04-08T03:37:13.576Z,0.00
2023-04-08T03:38:13.524Z,0.00
2023-04-08T03:39:13.566Z,0.00
2023-04-08T03:40:14.725Z,0.00
2023-04-08T03:41:13.711Z,0.00
2023-04-08T03:42:13.531Z,0.16
2023-04-08T03:43:13.495Z,0.48
2023-04-08T03:44:13.657Z,0.00
2023-04-08T03:45:13.694Z,0.00
2023-04-08T03:46:13.676Z,0.00
2023-04-08T03:47:13.553Z,0.00
2023-04-08T03:48:13.411Z,0.00
2023-04-08T03:49:13.657Z,0.00
2023-04-08T03:50:13.696Z,0.00
2023-04-08T03:51:13.681Z,0.00
2023-04-08T03:52:14.012Z,0.00
2023-04-08T03:53:12.983Z,0.00
2023-04-08T03:54:12.893Z,0.00
2023-04-08T03:55:13.061Z,0.00
2023-04-08T03:56:12.918Z,0.00
2023-04-08T03:57:12.818Z,0.00
2023-04-08T03:58:13.924Z,0.00
2023-04-08T03:59:13.200Z,0.00
2023-04-08T04:00:13.269Z,0.00
2023-04-08T04:01:13.235Z,0.00
2023-04-08T04:02:13.239Z,0.00
2023-04-08T04:03:13.401Z,0.00
2023-04-08T04:04:13.878Z,0.00
2023-04-08T04:05:13.136Z,0.76
2023-04-08T04:06:12.999Z,1.00
2023-04-08T04:07:13.149Z,0.76
2023-04-08T04:08:14.216Z,1.00
2023-04-08T04:09:13.130Z,0.20
2023-04-08T04:10:13.185Z,0.00
2023-04-08T04:11:13.039Z,0.28
2023-04-08T04:12:12.877Z,0.48
2023-04-08T04:13:13.792Z,0.00
2023-04-08T04:14:14.050Z,0.76
2023-04-08T04:15:13.047Z,0.32
2023-04-08T04:16:13.255Z,1.32
2023-04-08T04:17:13.430Z,0.24
2023-04-08T04:18:13.766Z,0.92
2023-04-08T04:19:14.028Z,0.24
2023-04-08T04:20:12.864Z,0.00
2023-04-08T04:21:13.060Z,0.00
2023-04-08T04:22:13.159Z,0.00
2023-04-08T04:23:14.215Z,0.00
2023-04-08T04:24:13.545Z,0.07
2023-04-08T04:25:13.657Z,0.28
2023-04-08T04:26:13.519Z,0.20
2023-04-08T04:27:13.512Z,0.00
2023-04-08T04:28:13.535Z,0.00
2023-04-08T04:29:13.450Z,0.00
2023-04-08T04:30:13.584Z,0.00
2023-04-08T04:31:13.541Z,0.00
2023-04-08T04:32:13.422Z,0.00
2023-04-08T04:33:18.655Z,0.00
2023-04-08T04:34:13.507Z,0.00
2023-04-08T04:35:13.581Z,0.00
2023-04-08T04:36:13.762Z,0.00
2023-04-08T04:37:14.180Z,0.00
2023-04-08T04:38:13.355Z,0.76
2023-04-08T04:39:13.224Z,0.96
2023-04-08T04:40:13.019Z,0.48
2023-04-08T04:41:12.943Z,0.88
2023-04-08T04:42:12.872Z,1.44
2023-04-08T04:43:14.071Z,0.92
2023-04-08T04:44:13.284Z,0.92
2023-04-08T04:45:13.072Z,0.66
2023-04-08T04:46:13.411Z,0.96
2023-04-08T04:47:13.832Z,0.56
2023-04-08T04:48:14.112Z,0.08
2023-04-08T04:49:13.052Z,0.16
2023-04-08T04:50:13.153Z,0.00
2023-04-08T04:51:12.973Z,0.00
2023-04-08T04:52:13.230Z,0.00
2023-04-08T04:53:13.208Z,0.00
2023-04-08T04:54:13.384Z,0.48
2023-04-08T04:55:13.701Z,0.08
2023-04-08T04:56:13.937Z,0.08
2023-04-08T04:57:13.241Z,0.20
2023-04-08T04:58:13.221Z,0.00
2023-04-08T04:59:13.545Z,0.04
2023-04-08T05:00:13.465Z,0.44
2023-04-08T05:01:13.636Z,0.56
2023-04-08T05:02:13.773Z,0.68
2023-04-08T05:03:14.355Z,0.36
2023-04-08T05:04:13.319Z,0.00
2023-04-08T05:05:14.776Z,0.04
2023-04-08T05:06:14.140Z,0.00
2023-04-08T05:07:13.040Z,0.00
2023-04-08T05:08:13.195Z,0.00
2023-04-08T05:09:13.284Z,0.00
2023-04-08T05:10:13.106Z,0.00
2023-04-08T05:11:13.370Z,0.00
2023-04-08T05:12:13.362Z,0.00
2023-04-08T05:13:13.541Z,0.00
2023-04-08T05:14:13.636Z,0.00
2023-04-08T05:15:13.603Z,0.00
2023-04-08T05:16:14.042Z,0.00
2023-04-08T05:17:13.089Z,0.68
2023-04-08T05:18:13.192Z,0.04
2023-04-08T05:19:13.145Z,0.00
2023-04-08T05:20:13.411Z,0.00
2023-04-08T05:21:13.074Z,0.28
2023-04-08T05:22:13.080Z,0.96
2023-04-08T05:23:13.181Z,0.64
2023-04-08T05:24:13.104Z,0.36
2023-04-08T05:25:13.245Z,0.04
2023-04-08T05:26:14.201Z,0.04
2023-04-08T05:27:12.991Z,0.04
2023-04-08T05:28:12.903Z,0.08
2023-04-08T05:29:12.941Z,0.28
2023-04-08T05:30:12.844Z,0.24
2023-04-08T05:31:13.737Z,0.00
2023-04-08T05:32:13.840Z,0.00
2023-04-08T05:33:13.891Z,0.00
2023-04-08T05:34:13.958Z,0.32
2023-04-08T05:35:12.771Z,0.00
2023-04-08T05:36:13.601Z,0.28
2023-04-08T05:37:13.553Z,0.92
2023-04-08T05:38:13.659Z,0.40
2023-04-08T05:39:13.548Z,0.00
2023-04-08T05:40:13.480Z,0.00
2023-04-08T05:41:13.481Z,0.00
2023-04-08T05:42:13.533Z,0.00
2023-04-08T05:43:13.493Z,0.00
2023-04-08T05:44:13.355Z,0.04
2023-04-08T05:45:13.589Z,0.68
2023-04-08T05:46:13.553Z,1.40
2023-04-08T05:47:13.956Z,1.52
2023-04-08T05:48:12.903Z,0.60
2023-04-08T05:51:13.424Z,2.36
2023-04-08T05:52:13.388Z,1.20
2023-04-08T05:53:13.420Z,0.00
2023-04-08T05:54:15.423Z,0.00
2023-04-08T05:55:14.167Z,0.40
2023-04-08T05:56:18.806Z,1.24
2023-04-08T05:57:14.213Z,0.24
2023-04-08T05:58:13.055Z,0.00
2023-04-08T05:59:24.960Z,0.08
2023-04-08T06:01:13.292Z,0.56
2023-04-08T06:02:14.870Z,0.88
2023-04-08T06:03:13.214Z,0.92
2023-04-08T06:04:13.954Z,1.24
2023-04-08T06:05:12.993Z,1.52
2023-04-08T06:06:12.858Z,0.48
2023-04-08T06:07:13.052Z,0.48
2023-04-08T06:08:12.962Z,0.00
2023-04-08T06:09:12.760Z,0.00
2023-04-08T06:10:14.030Z,0.32
2023-04-08T06:11:12.990Z,0.00
2023-04-08T06:12:12.894Z,0.00
2023-04-08T06:13:12.950Z,0.00
2023-04-08T06:14:13.189Z,0.00
2023-04-08T06:15:15.368Z,0.00
2023-04-08T06:16:13.656Z,0.16
2023-04-08T06:17:13.825Z,0.48
2023-04-08T06:18:14.061Z,0.00
2023-04-08T06:19:13.203Z,0.40
2023-04-08T06:20:13.427Z,0.04
2023-04-08T06:21:13.386Z,0.44
2023-04-08T06:22:13.274Z,0.00
2023-04-08T06:23:13.273Z,0.00
2023-04-08T06:24:13.485Z,0.00
2023-04-08T06:25:13.755Z,0.00
2023-04-08T06:26:13.789Z,0.00
2023-04-08T06:27:13.683Z,0.00
2023-04-08T06:28:13.538Z,0.00
2023-04-08T06:29:13.394Z,0.24
2023-04-08T06:30:13.273Z,0.00
2023-04-08T06:31:13.434Z,0.07
2023-04-08T06:32:13.656Z,0.00
2023-04-08T06:33:13.813Z,0.00
2023-04-08T06:34:13.684Z,0.00
2023-04-08T06:35:13.745Z,0.32
2023-04-08T06:36:14.086Z,2.40
2023-04-08T06:37:12.970Z,2.16
2023-04-08T06:38:13.023Z,1.32
2023-04-08T06:39:13.195Z,1.04
2023-04-08T06:40:13.411Z,1.88
2023-04-08T06:41:13.293Z,1.36
2023-04-08T06:42:13.162Z,0.68
2023-04-08T06:43:13.227Z,1.80
2023-04-08T06:44:13.179Z,1.48
2023-04-08T06:45:13.154Z,0.00
2023-04-08T06:46:13.253Z,0.00
2023-04-08T06:47:13.166Z,0.00
2023-04-08T06:48:13.215Z,0.00
2023-04-08T06:49:13.167Z,0.00
2023-04-08T06:50:13.013Z,0.00
2023-04-08T06:51:13.156Z,0.00
2023-04-08T06:52:14.721Z,0.00
2023-04-08T06:53:13.121Z,0.00
2023-04-08T06:54:13.362Z,0.00
2023-04-08T06:55:13.277Z,0.16
2023-04-08T06:56:13.369Z,0.00
2023-04-08T06:57:13.711Z,0.00
2023-04-08T06:58:13.679Z,0.64
2023-04-08T06:59:13.534Z,0.52
2023-04-08T07:00:13.429Z,0.00
2023-04-08T07:01:13.630Z,0.00
2023-04-08T07:02:13.609Z,0.20
2023-04-08T07:03:13.914Z,0.60
2023-04-08T07:04:13.078Z,0.16
2023-04-08T07:05:13.143Z,0.00
2023-04-08T07:06:13.501Z,0.00
2023-04-08T07:07:13.508Z,0.00
2023-04-08T07:08:13.667Z,0.92
2023-04-08T07:09:13.706Z,1.56
2023-04-08T07:10:13.556Z,0.00
2023-04-08T07:11:13.715Z,0.00
2023-04-08T07:12:13.983Z,0.24
2023-04-08T07:13:13.270Z,0.00
2023-04-08T07:14:13.239Z,0.00
2023-04-08T07:15:13.129Z,0.00
2023-04-08T07:16:13.271Z,0.40
2023-04-08T07:17:13.405Z,0.32
2023-04-08T07:18:13.352Z,0.96
2023-04-08T07:19:13.294Z,1.00
2023-04-08T07:20:13.494Z,1.92
2023-04-08T07:21:13.404Z,0.08
2023-04-08T07:22:13.323Z,0.24
2023-04-08T07:23:13.617Z,0.00
2023-04-08T07:24:13.483Z,0.00
2023-04-08T07:25:13.507Z,0.00
2023-04-08T07:26:13.329Z,0.00
2023-04-08T07:27:13.669Z,0.00
2023-04-08T07:28:13.725Z,0.00
2023-04-08T07:29:13.618Z,0.00
2023-04-08T07:30:14.099Z,0.00
2023-04-08T07:31:13.283Z,0.16
2023-04-08T07:32:13.415Z,0.00
2023-04-08T07:33:13.830Z,0.64
2023-04-08T07:34:13.881Z,1.88
2023-04-08T07:35:12.805Z,3.72
2023-04-08T07:36:13.881Z,2.48
2023-04-08T07:37:12.782Z,2.60
2023-04-08T07:38:13.692Z,1.52
2023-04-08T07:39:13.580Z,1.96
2023-04-08T07:40:14.425Z,3.24
2023-04-08T07:41:13.670Z,2.60
2023-04-08T07:42:13.494Z,1.00
2023-04-08T07:43:13.707Z,2.08
2023-04-08T07:44:13.714Z,5.48
2023-04-08T07:45:13.682Z,3.20
2023-04-08T07:46:13.818Z,3.68
2023-04-08T07:47:13.748Z,3.00
2023-04-08T07:48:13.647Z,2.92
2023-04-08T07:49:13.868Z,1.72
2023-04-08T07:50:13.802Z,0.00
2023-04-08T07:51:13.659Z,0.00
2023-04-08T07:52:13.898Z,0.00
2023-04-08T07:53:13.103Z,0.72
2023-04-08T07:54:14.418Z,0.88
2023-04-08T07:55:13.367Z,2.56
2023-04-08T07:56:13.765Z,0.68
2023-04-08T07:57:12.817Z,0.00
2023-04-08T07:58:13.134Z,0.00
2023-04-08T07:59:13.060Z,2.68
2023-04-08T08:00:12.963Z,0.60
2023-04-08T08:01:13.295Z,0.00
2023-04-08T08:02:13.671Z,0.00
2023-04-08T08:03:18.909Z,0.00
2023-04-08T08:04:13.630Z,2.24
2023-04-08T08:05:13.844Z,3.36
2023-04-08T08:06:13.806Z,3.08
2023-04-08T08:07:14.018Z,0.68
2023-04-08T08:08:13.161Z,1.52
2023-04-08T08:09:13.524Z,1.96
2023-04-08T08:10:13.672Z,5.20
2023-04-08T08:11:13.588Z,5.20
2023-04-08T08:12:13.453Z,2.72
2023-04-08T08:13:13.694Z,2.68
2023-04-08T08:14:13.732Z,3.00
2023-04-08T08:15:13.602Z,2.92
2023-04-08T08:16:13.677Z,4.20
2023-04-08T08:17:13.629Z,5.04
2023-04-08T08:18:14.747Z,4.80
2023-04-08T08:19:14.048Z,4.73
2023-04-08T08:20:13.002Z,3.04
2023-04-08T08:21:13.286Z,6.04
2023-04-08T08:22:14.011Z,6.48
2023-04-08T08:23:13.361Z,8.60
2023-04-08T08:24:13.622Z,3.92
2023-04-08T08:25:13.762Z,0.24
2023-04-08T08:26:13.928Z,0.04
2023-04-08T08:27:13.046Z,0.00
2023-04-08T08:28:13.016Z,0.00
2023-04-08T08:29:13.097Z,0.00
2023-04-08T08:30:12.940Z,0.00
2023-04-08T08:31:12.888Z,0.58
2023-04-08T08:32:12.912Z,0.08
2023-04-08T08:33:13.834Z,0.00
2023-04-08T08:34:18.639Z,0.00
2023-04-08T08:35:13.660Z,0.00
2023-04-08T08:36:13.854Z,0.16
2023-04-08T08:37:18.113Z,0.00
2023-04-08T08:38:13.375Z,0.52
2023-04-08T08:39:13.626Z,0.08
2023-04-08T08:40:13.619Z,2.92
2023-04-08T08:41:13.689Z,1.00
2023-04-08T08:42:13.586Z,1.24
2023-04-08T08:43:13.523Z,4.92
2023-04-08T08:44:13.515Z,4.64
2023-04-08T08:45:13.494Z,5.28
2023-04-08T08:46:13.476Z,9.00
2023-04-08T08:47:13.368Z,5.72
2023-04-08T08:48:13.453Z,7.00
2023-04-08T08:49:13.563Z,5.96
2023-04-08T08:50:13.482Z,2.96
2023-04-08T08:51:13.509Z,3.32
2023-04-08T08:52:13.524Z,5.40
2023-04-08T08:53:14.308Z,0.00
2023-04-08T08:54:13.498Z,5.48
2023-04-08T08:55:35.024Z,10.08
2023-04-08T08:56:18.307Z,8.12
2023-04-08T08:57:12.931Z,5.64
2023-04-08T08:58:12.735Z,3.04
2023-04-08T08:59:13.717Z,8.80
2023-04-08T09:00:13.907Z,5.28
2023-04-08T09:01:13.085Z,9.24
2023-04-08T09:02:13.354Z,10.56
2023-04-08T09:03:13.613Z,10.84
2023-04-08T09:04:18.537Z,7.16
2023-04-08T09:05:13.951Z,4.28
2023-04-08T09:06:12.956Z,8.64
2023-04-08T09:07:12.890Z,5.88
2023-04-08T09:08:13.873Z,6.52
2023-04-08T09:09:12.841Z,4.64
2023-04-08T09:10:13.950Z,3.52
2023-04-08T09:11:13.025Z,4.68
2023-04-08T09:12:13.113Z,4.88
2023-04-08T09:13:13.026Z,1.12
2023-04-08T09:14:13.143Z,1.36
2023-04-08T09:15:13.252Z,2.16
2023-04-08T09:16:13.629Z,4.40
2023-04-08T09:17:13.530Z,3.08
2023-04-08T09:18:13.535Z,3.40
2023-04-08T09:19:13.434Z,10.68
2023-04-08T09:20:13.613Z,9.16
2023-04-08T09:21:13.665Z,1.36
2023-04-08T09:22:13.576Z,3.70
2023-04-08T09:23:13.444Z,4.40
2023-04-08T09:24:13.420Z,1.44
2023-04-08T09:25:13.671Z,7.56
2023-04-08T09:26:13.902Z,4.48
2023-04-08T09:27:12.869Z,8.40
2023-04-08T09:28:13.738Z,7.28
2023-04-08T09:29:25.460Z,5.56
2023-04-08T09:30:13.318Z,2.36
2023-04-08T09:31:13.379Z,3.40
2023-04-08T09:32:13.352Z,0.20
2023-04-08T09:33:13.317Z,0.00
2023-04-08T09:34:13.285Z,6.28
2023-04-08T09:35:13.387Z,10.48
2023-04-08T09:36:13.655Z,6.28
2023-04-08T09:37:13.528Z,12.72
2023-04-08T09:38:13.779Z,10.40
2023-04-08T09:39:13.699Z,12.56
2023-04-08T09:40:14.206Z,12.32
2023-04-08T09:41:13.161Z,10.16
2023-04-08T09:42:13.608Z,3.56
2023-04-08T09:43:13.500Z,8.08
2023-04-08T09:44:13.698Z,10.44
2023-04-08T09:45:13.925Z,6.64
2023-04-08T09:46:13.265Z,2.32
2023-04-08T09:47:13.239Z,0.12
2023-04-08T09:48:14.425Z,4.92
2023-04-08T09:49:13.192Z,5.96
2023-04-08T09:50:13.011Z,0.24
2023-04-08T09:51:13.275Z,5.76
2023-04-08T09:52:13.149Z,8.28
2023-04-08T09:53:13.367Z,1.64
2023-04-08T09:54:13.197Z,7.92
2023-04-08T09:55:13.111Z,9.68
2023-04-08T09:56:13.382Z,8.52
2023-04-08T09:57:13.288Z,10.08
2023-04-08T09:58:13.227Z,11.08
2023-04-08T09:59:13.468Z,16.96
2023-04-08T10:00:13.489Z,8.92
2023-04-08T10:01:13.572Z,9.08
2023-04-08T10:02:13.608Z,4.80
2023-04-08T10:03:14.005Z,3.96
2023-04-08T10:04:13.472Z,1.28
2023-04-08T10:05:14.071Z,9.12
2023-04-08T10:07:13.408Z,9.36
2023-04-08T10:08:13.612Z,11.28
2023-04-08T10:09:18.576Z,15.40
2023-04-08T10:10:23.713Z,9.42
2023-04-08T10:11:13.656Z,14.40
2023-04-08T10:12:13.505Z,12.40
2023-04-08T10:13:13.910Z,13.68
2023-04-08T10:14:13.057Z,6.32
2023-04-08T10:15:13.221Z,6.72
2023-04-08T10:16:13.223Z,5.45
2023-04-08T10:17:13.577Z,0.00
2023-04-08T10:18:13.472Z,12.20
2023-04-08T10:19:13.444Z,15.04
2023-04-08T10:20:13.300Z,15.40
2023-04-08T10:21:13.525Z,13.28
2023-04-08T10:22:13.453Z,9.88
2023-04-08T10:23:13.484Z,11.76
2023-04-08T10:24:13.505Z,7.80
2023-04-08T10:25:13.457Z,10.80
2023-04-08T10:26:13.384Z,6.84
2023-04-08T10:27:13.613Z,9.48
2023-04-08T10:28:13.716Z,11.72
2023-04-08T10:29:13.791Z,10.56
2023-04-08T10:30:13.736Z,18.52
2023-04-08T10:31:18.822Z,19.48
2023-04-08T10:32:13.956Z,17.40
2023-04-08T10:33:14.444Z,4.72
2023-04-08T10:34:13.341Z,14.96
2023-04-08T10:35:13.472Z,20.20
2023-04-08T10:36:13.857Z,14.40
2023-04-08T10:37:14.018Z,17.08
2023-04-08T10:38:13.332Z,11.64
2023-04-08T10:39:13.287Z,12.64
2023-04-08T10:40:13.207Z,9.80
2023-04-08T10:41:13.186Z,1.52
2023-04-08T10:42:13.247Z,8.36
2023-04-08T10:43:13.216Z,0.88
2023-04-08T10:44:13.176Z,1.96
2023-04-08T10:46:13.415Z,4.92
2023-04-08T10:47:13.352Z,7.32
2023-04-08T10:48:13.662Z,7.20
2023-04-08T10:49:13.586Z,2.12
2023-04-08T10:50:14.832Z,0.00
2023-04-08T10:51:13.880Z,1.56
2023-04-08T10:52:12.881Z,4.48
2023-04-08T10:53:13.846Z,5.88
2023-04-08T10:54:13.749Z,2.12
2023-04-08T10:55:14.421Z,0.86
2023-04-08T10:56:14.426Z,0.00
2023-04-08T10:57:13.395Z,0.00
2023-04-08T10:58:13.413Z,0.00
2023-04-08T10:59:13.244Z,6.24
2023-04-08T11:00:13.281Z,5.80
2023-04-08T11:01:13.193Z,4.24
2023-04-08T11:02:13.544Z,3.84
2023-04-08T11:03:15.798Z,2.64
2023-04-08T11:04:13.005Z,4.40
2023-04-08T11:05:12.901Z,13.88
2023-04-08T11:06:13.209Z,11.12
2023-04-08T11:07:13.299Z,9.20
2023-04-08T11:08:14.089Z,8.48
2023-04-08T11:09:12.999Z,13.04
2023-04-08T11:10:13.102Z,21.53
2023-04-08T11:11:12.978Z,28.12
2023-04-08T11:12:12.899Z,4.56
2023-04-08T11:13:12.994Z,6.60
2023-04-08T11:14:13.050Z,16.12
2023-04-08T11:15:13.154Z,20.04
2023-04-08T11:16:18.126Z,24.16
2023-04-08T11:17:13.323Z,15.40
2023-04-08T11:18:13.350Z,3.32
2023-04-08T11:19:13.649Z,1.88
2023-04-08T11:20:13.617Z,4.52
2023-04-08T11:21:13.849Z,4.80
2023-04-08T11:22:14.209Z,8.36
2023-04-08T11:23:13.391Z,10.32
2023-04-08T11:24:13.660Z,4.76
2023-04-08T11:25:13.782Z,21.48
2023-04-08T11:26:13.778Z,18.84
2023-04-08T11:27:13.683Z,5.80
2023-04-08T11:28:13.741Z,1.24
2023-04-08T11:29:13.803Z,5.36
2023-04-08T11:30:13.831Z,17.08
2023-04-08T11:31:12.882Z,14.44
2023-04-08T11:32:12.842Z,12.76
2023-04-08T11:33:13.939Z,1.36
2023-04-08T11:34:12.976Z,0.28
2023-04-08T11:35:12.819Z,6.80
2023-04-08T11:36:14.155Z,12.44
2023-04-08T11:37:13.085Z,5.88
2023-04-08T11:38:13.360Z,14.20
2023-04-08T11:39:13.745Z,7.80
2023-04-08T11:40:13.804Z,12.64
2023-04-08T11:41:13.785Z,16.52
2023-04-08T11:42:13.700Z,9.68
2023-04-08T11:43:13.925Z,17.04
2023-04-08T11:44:12.840Z,16.44
2023-04-08T11:45:13.882Z,20.20
2023-04-08T11:46:13.137Z,0.20
2023-04-08T11:47:13.046Z,6.32
2023-04-08T11:48:13.332Z,2.32
2023-04-08T11:49:13.517Z,0.00
2023-04-08T11:50:13.590Z,9.64
2023-04-08T11:51:13.523Z,2.92
2023-04-08T11:52:13.588Z,11.52
2023-04-08T11:53:13.783Z,2.68
2023-04-08T11:54:13.743Z,5.92
2023-04-08T11:55:14.985Z,0.80
2023-04-08T11:56:13.174Z,2.44
2023-04-08T11:57:13.244Z,3.76
2023-04-08T11:58:13.198Z,6.36
2023-04-08T11:59:13.196Z,6.32
2023-04-08T12:00:13.149Z,12.32
2023-04-08T12:01:12.959Z,11.16
2023-04-08T12:02:12.953Z,20.36
2023-04-08T12:03:18.328Z,22.36
2023-04-08T12:04:13.732Z,23.92
2023-04-08T12:05:13.764Z,19.60
2023-04-08T12:06:14.188Z,18.04
2023-04-08T12:07:13.522Z,19.40
2023-04-08T12:08:14.169Z,15.24
2023-04-08T12:09:15.239Z,12.28
2023-04-08T12:10:13.406Z,18.80
2023-04-08T12:11:20.264Z,7.04
2023-04-08T12:12:13.433Z,13.08
2023-04-08T12:13:13.546Z,14.60
2023-04-08T12:14:19.990Z,14.76
2023-04-08T12:15:13.101Z,16.24
2023-04-08T12:16:13.126Z,7.76
2023-04-08T12:17:13.118Z,14.48
2023-04-08T12:18:13.158Z,14.96
2023-04-08T12:19:13.208Z,14.92
2023-04-08T12:20:13.263Z,13.72
2023-04-08T12:21:13.311Z,6.04
2023-04-08T12:22:18.166Z,2.16
2023-04-08T12:23:13.150Z,4.52
2023-04-08T12:24:13.176Z,6.52
2023-04-08T12:25:13.151Z,13.08
2023-04-08T12:26:13.678Z,8.16
2023-04-08T12:27:13.646Z,12.96
2023-04-08T12:28:13.563Z,1.68
2023-04-08T12:29:40.638Z,11.92
2023-04-08T12:30:15.347Z,8.52
2023-04-08T12:31:19.807Z,10.80
2023-04-08T12:32:13.984Z,11.12
2023-04-08T12:33:13.243Z,13.72
2023-04-08T12:34:13.155Z,15.44
2023-04-08T12:36:13.848Z,8.08
2023-04-08T12:37:35.058Z,4.08
2023-04-08T12:38:13.625Z,8.16
2023-04-08T12:39:13.681Z,8.00
2023-04-08T12:41:12.995Z,3.79
2023-04-08T12:42:12.929Z,8.04
2023-04-08T12:43:38.227Z,10.80
2023-04-08T12:44:13.998Z,13.08
2023-04-08T12:45:13.204Z,5.28
2023-04-08T12:46:23.298Z,10.48
2023-04-08T12:47:13.929Z,15.04
2023-04-08T12:48:21.331Z,10.32
2023-04-08T12:49:13.372Z,22.94
2023-04-08T12:50:13.255Z,28.72
2023-04-08T12:51:13.522Z,30.20
2023-04-08T12:52:13.688Z,18.24
2023-04-08T12:53:13.904Z,5.08
2023-04-08T12:54:13.197Z,7.56
2023-04-08T12:55:13.129Z,2.04
2023-04-08T12:56:13.067Z,5.28
2023-04-08T12:57:13.040Z,8.24
2023-04-08T12:58:13.335Z,5.04
2023-04-08T12:59:13.531Z,5.92
2023-04-08T13:00:13.506Z,8.56
2023-04-08T13:01:13.587Z,14.00
2023-04-08T13:02:13.523Z,19.20
2023-04-08T13:03:14.028Z,5.44
2023-04-08T13:04:13.074Z,2.36
2023-04-08T13:05:12.950Z,4.20
2023-04-08T13:06:12.995Z,2.28
2023-04-08T13:07:13.183Z,0.16
2023-04-08T13:08:13.324Z,0.00
2023-04-08T13:09:13.420Z,1.48
2023-04-08T13:10:13.336Z,2.48
2023-04-08T13:11:13.426Z,2.44
2023-04-08T13:12:13.260Z,4.92
2023-04-08T13:13:13.224Z,4.60
2023-04-08T13:14:13.036Z,2.72
2023-04-08T13:15:13.105Z,4.60
2023-04-08T13:16:13.161Z,2.48
2023-04-08T13:17:13.250Z,2.00
2023-04-08T13:18:13.405Z,5.28
2023-04-08T13:19:13.347Z,7.24
2023-04-08T13:20:13.238Z,18.72
2023-04-08T13:21:13.692Z,18.68
2023-04-08T13:22:13.612Z,14.36
2023-04-08T13:23:13.822Z,8.16